sensor_id;sensor_type;location;lat;lon;timestamp;temperature;humidity
15384;DHT22;7790;53.022;12.968;2023-08-06T00:01:30;20.90;57.80
15384;DHT22;7790;53.022;12.968;2023-08-06T00:05:30;20.90;57.70
15384;DHT22;7790;53.022;12.968;2023-08-06T00:09:31;21.00;57.80
15384;DHT22;7790;53.022;12.968;2023-08-06T00:13:32;21.00;57.80
15384;DHT22;7790;53.022;12.968;2023-08-06T00:17:34;21.00;57.80
15384;DHT22;7790;53.022;12.968;2023-08-06T00:21:34;21.00;57.80
15384;DHT22;7790;53.022;12.968;2023-08-06T00:25:36;20.90;57.80
15384;DHT22;7790;53.022;12.968;2023-08-06T00:29:37;21.00;57.80
15384;DHT22;7790;53.022;12.968;2023-08-06T00:33:38;21.00;57.80
15384;DHT22;7790;53.022;12.968;2023-08-06T00:37:39;21.00;58.00
15384;DHT22;7790;53.022;12.968;2023-08-06T00:41:40;21.00;57.90
15384;DHT22;7790;53.022;12.968;2023-08-06T00:45:41;21.00;58.00
15384;DHT22;7790;53.022;12.968;2023-08-06T00:49:42;21.00;58.10
15384;DHT22;7790;53.022;12.968;2023-08-06T00:53:43;20.90;58.00
15384;DHT22;7790;53.022;12.968;2023-08-06T00:57:44;20.90;58.10
15384;DHT22;7790;53.022;12.968;2023-08-06T01:01:46;20.90;58.10
15384;DHT22;7790;53.022;12.968;2023-08-06T01:05:47;20.90;58.00
15384;DHT22;7790;53.022;12.968;2023-08-06T01:10:02;20.90;57.90
15384;DHT22;7790;53.022;12.968;2023-08-06T01:14:15;20.90;58.10
15384;DHT22;7790;53.022;12.968;2023-08-06T01:18:19;20.90;58.30
15384;DHT22;7790;53.022;12.968;2023-08-06T01:22:20;20.90;58.30
15384;DHT22;7790;53.022;12.968;2023-08-06T01:26:32;20.90;58.30
15384;DHT22;7790;53.022;12.968;2023-08-06T01:30:34;21.00;58.50
15384;DHT22;7790;53.022;12.968;2023-08-06T01:34:39;20.90;58.30
15384;DHT22;7790;53.022;12.968;2023-08-06T01:38:41;20.90;58.40
15384;DHT22;7790;53.022;12.968;2023-08-06T01:42:42;20.90;58.40
15384;DHT22;7790;53.022;12.968;2023-08-06T01:46:42;20.90;58.40
15384;DHT22;7790;53.022;12.968;2023-08-06T01:50:44;20.90;58.50
15384;DHT22;7790;53.022;12.968;2023-08-06T01:54:45;20.90;58.50
15384;DHT22;7790;53.022;12.968;2023-08-06T01:58:45;20.90;58.50
15384;DHT22;7790;53.022;12.968;2023-08-06T02:02:46;20.90;58.50
15384;DHT22;7790;53.022;12.968;2023-08-06T02:06:47;20.90;58.60
15384;DHT22;7790;53.022;12.968;2023-08-06T02:10:48;20.90;58.70
15384;DHT22;7790;53.022;12.968;2023-08-06T02:14:49;20.90;58.60
15384;DHT22;7790;53.022;12.968;2023-08-06T02:18:50;20.90;58.60
15384;DHT22;7790;53.022;12.968;2023-08-06T02:22:51;20.90;58.70
15384;DHT22;7790;53.022;12.968;2023-08-06T02:26:52;20.80;58.60
15384;DHT22;7790;53.022;12.968;2023-08-06T02:30:56;20.90;58.80
15384;DHT22;7790;53.022;12.968;2023-08-06T02:34:57;20.80;58.80
15384;DHT22;7790;53.022;12.968;2023-08-06T02:38:58;20.80;58.80
15384;DHT22;7790;53.022;12.968;2023-08-06T02:42:59;20.90;58.80
15384;DHT22;7790;53.022;12.968;2023-08-06T02:47:00;20.80;58.80
15384;DHT22;7790;53.022;12.968;2023-08-06T02:51:01;20.80;58.80
15384;DHT22;7790;53.022;12.968;2023-08-06T02:55:04;20.90;58.90
15384;DHT22;7790;53.022;12.968;2023-08-06T02:59:07;20.80;58.90
15384;DHT22;7790;53.022;12.968;2023-08-06T03:03:32;20.80;58.80
15384;DHT22;7790;53.022;12.968;2023-08-06T03:07:35;20.80;58.80
15384;DHT22;7790;53.022;12.968;2023-08-06T03:11:44;20.80;58.90
15384;DHT22;7790;53.022;12.968;2023-08-06T03:15:56;20.80;59.00
15384;DHT22;7790;53.022;12.968;2023-08-06T03:19:59;20.80;59.00
15384;DHT22;7790;53.022;12.968;2023-08-06T03:24:00;20.90;58.80
15384;DHT22;7790;53.022;12.968;2023-08-06T03:28:05;20.90;58.70
15384;DHT22;7790;53.022;12.968;2023-08-06T03:32:08;20.90;58.70
15384;DHT22;7790;53.022;12.968;2023-08-06T03:36:09;20.90;58.80
15384;DHT22;7790;53.022;12.968;2023-08-06T03:40:11;20.90;58.70
15384;DHT22;7790;53.022;12.968;2023-08-06T03:44:13;20.90;58.70
15384;DHT22;7790;53.022;12.968;2023-08-06T03:48:15;20.80;59.00
15384;DHT22;7790;53.022;12.968;2023-08-06T03:52:16;20.80;59.40
15384;DHT22;7790;53.022;12.968;2023-08-06T03:56:17;20.70;59.50
15384;DHT22;7790;53.022;12.968;2023-08-06T04:00:18;20.70;59.50
15384;DHT22;7790;53.022;12.968;2023-08-06T04:04:25;20.70;59.50
15384;DHT22;7790;53.022;12.968;2023-08-06T04:08:26;20.70;59.30
15384;DHT22;7790;53.022;12.968;2023-08-06T04:12:27;20.70;59.20
15384;DHT22;7790;53.022;12.968;2023-08-06T04:16:28;20.80;59.20
15384;DHT22;7790;53.022;12.968;2023-08-06T04:20:29;20.80;59.10
15384;DHT22;7790;53.022;12.968;2023-08-06T04:24:30;20.80;59.10
15384;DHT22;7790;53.022;12.968;2023-08-06T04:28:31;20.80;59.10
15384;DHT22;7790;53.022;12.968;2023-08-06T04:32:32;20.80;59.10
15384;DHT22;7790;53.022;12.968;2023-08-06T04:36:32;20.80;59.10
15384;DHT22;7790;53.022;12.968;2023-08-06T04:40:35;20.80;59.10
15384;DHT22;7790;53.022;12.968;2023-08-06T04:44:36;20.80;59.20
15384;DHT22;7790;53.022;12.968;2023-08-06T04:48:37;20.80;59.20
15384;DHT22;7790;53.022;12.968;2023-08-06T04:52:38;20.80;59.20
15384;DHT22;7790;53.022;12.968;2023-08-06T04:56:39;20.80;59.30
15384;DHT22;7790;53.022;12.968;2023-08-06T05:00:40;20.80;59.40
15384;DHT22;7790;53.022;12.968;2023-08-06T05:04:41;20.70;59.50
15384;DHT22;7790;53.022;12.968;2023-08-06T05:08:42;20.60;59.70
15384;DHT22;7790;53.022;12.968;2023-08-06T05:12:42;20.60;59.80
15384;DHT22;7790;53.022;12.968;2023-08-06T05:16:43;20.50;59.80
15384;DHT22;7790;53.022;12.968;2023-08-06T05:20:44;20.50;59.90
15384;DHT22;7790;53.022;12.968;2023-08-06T05:24:45;20.50;59.90
15384;DHT22;7790;53.022;12.968;2023-08-06T05:28:46;20.50;60.00
15384;DHT22;7790;53.022;12.968;2023-08-06T05:32:47;20.50;60.00
15384;DHT22;7790;53.022;12.968;2023-08-06T05:36:48;20.40;60.10
15384;DHT22;7790;53.022;12.968;2023-08-06T05:40:49;20.50;60.20
15384;DHT22;7790;53.022;12.968;2023-08-06T05:44:50;20.50;60.30
15384;DHT22;7790;53.022;12.968;2023-08-06T05:48:50;20.50;60.50
15384;DHT22;7790;53.022;12.968;2023-08-06T05:52:52;20.50;60.70
15384;DHT22;7790;53.022;12.968;2023-08-06T05:56:53;20.50;60.80
15384;DHT22;7790;53.022;12.968;2023-08-06T06:00:54;20.50;60.80
15384;DHT22;7790;53.022;12.968;2023-08-06T06:04:55;20.50;61.20
15384;DHT22;7790;53.022;12.968;2023-08-06T06:08:56;20.50;61.40
15384;DHT22;7790;53.022;12.968;2023-08-06T06:12:57;20.40;61.50
15384;DHT22;7790;53.022;12.968;2023-08-06T06:16:59;20.50;61.60
15384;DHT22;7790;53.022;12.968;2023-08-06T06:21:00;20.50;61.60
15384;DHT22;7790;53.022;12.968;2023-08-06T06:25:01;20.40;61.60
15384;DHT22;7790;53.022;12.968;2023-08-06T06:29:02;20.50;61.80
15384;DHT22;7790;53.022;12.968;2023-08-06T06:33:03;20.50;62.00
15384;DHT22;7790;53.022;12.968;2023-08-06T06:37:04;20.40;62.20
15384;DHT22;7790;53.022;12.968;2023-08-06T06:41:05;20.40;62.40
15384;DHT22;7790;53.022;12.968;2023-08-06T06:45:07;20.40;62.60
15384;DHT22;7790;53.022;12.968;2023-08-06T06:49:08;20.40;62.80
15384;DHT22;7790;53.022;12.968;2023-08-06T06:53:09;20.40;62.90
15384;DHT22;7790;53.022;12.968;2023-08-06T06:57:10;20.40;63.20
15384;DHT22;7790;53.022;12.968;2023-08-06T07:01:12;20.40;63.30
15384;DHT22;7790;53.022;12.968;2023-08-06T07:05:13;20.40;63.50
15384;DHT22;7790;53.022;12.968;2023-08-06T07:09:14;20.40;63.70
15384;DHT22;7790;53.022;12.968;2023-08-06T07:13:14;20.40;63.50
15384;DHT22;7790;53.022;12.968;2023-08-06T07:17:17;20.50;63.20
15384;DHT22;7790;53.022;12.968;2023-08-06T07:21:18;20.40;63.50
15384;DHT22;7790;53.022;12.968;2023-08-06T07:25:18;20.40;64.00
15384;DHT22;7790;53.022;12.968;2023-08-06T07:29:20;20.40;64.30
15384;DHT22;7790;53.022;12.968;2023-08-06T07:33:22;20.50;63.60
15384;DHT22;7790;53.022;12.968;2023-08-06T07:37:23;20.60;62.70
15384;DHT22;7790;53.022;12.968;2023-08-06T07:41:24;20.60;62.30
15384;DHT22;7790;53.022;12.968;2023-08-06T07:45:25;20.60;62.10
15384;DHT22;7790;53.022;12.968;2023-08-06T07:49:27;20.60;62.30
15384;DHT22;7790;53.022;12.968;2023-08-06T07:53:28;20.60;62.20
15384;DHT22;7790;53.022;12.968;2023-08-06T07:57:33;20.50;62.30
15384;DHT22;7790;53.022;12.968;2023-08-06T08:01:35;20.50;62.30
15384;DHT22;7790;53.022;12.968;2023-08-06T08:05:35;20.60;62.30
15384;DHT22;7790;53.022;12.968;2023-08-06T08:09:36;20.60;62.30
15384;DHT22;7790;53.022;12.968;2023-08-06T08:13:37;20.60;62.30
15384;DHT22;7790;53.022;12.968;2023-08-06T08:17:38;20.60;62.20
15384;DHT22;7790;53.022;12.968;2023-08-06T08:21:39;20.60;62.10
15384;DHT22;7790;53.022;12.968;2023-08-06T08:25:40;20.60;62.00
15384;DHT22;7790;53.022;12.968;2023-08-06T08:29:40;20.50;62.10
15384;DHT22;7790;53.022;12.968;2023-08-06T08:33:41;20.60;62.20
15384;DHT22;7790;53.022;12.968;2023-08-06T08:37:43;20.60;62.10
15384;DHT22;7790;53.022;12.968;2023-08-06T08:41:44;20.60;62.00
15384;DHT22;7790;53.022;12.968;2023-08-06T08:45:51;20.60;61.90
15384;DHT22;7790;53.022;12.968;2023-08-06T08:49:54;20.60;61.80
15384;DHT22;7790;53.022;12.968;2023-08-06T08:53:58;20.60;62.00
15384;DHT22;7790;53.022;12.968;2023-08-06T08:57:59;20.60;61.90
15384;DHT22;7790;53.022;12.968;2023-08-06T09:02:03;20.60;62.00
15384;DHT22;7790;53.022;12.968;2023-08-06T09:06:04;20.60;62.00
15384;DHT22;7790;53.022;12.968;2023-08-06T09:10:07;20.60;61.90
15384;DHT22;7790;53.022;12.968;2023-08-06T09:14:11;20.60;61.90
15384;DHT22;7790;53.022;12.968;2023-08-06T09:18:12;20.60;61.90
15384;DHT22;7790;53.022;12.968;2023-08-06T09:22:13;20.60;61.90
15384;DHT22;7790;53.022;12.968;2023-08-06T09:26:14;20.60;61.80
15384;DHT22;7790;53.022;12.968;2023-08-06T09:30:32;20.60;61.60
15384;DHT22;7790;53.022;12.968;2023-08-06T09:34:33;20.60;61.60
15384;DHT22;7790;53.022;12.968;2023-08-06T09:38:38;20.60;61.40
15384;DHT22;7790;53.022;12.968;2023-08-06T09:42:42;20.60;61.60
15384;DHT22;7790;53.022;12.968;2023-08-06T09:46:50;20.70;61.50
15384;DHT22;7790;53.022;12.968;2023-08-06T09:50:52;20.70;61.50
15384;DHT22;7790;53.022;12.968;2023-08-06T09:54:55;20.60;61.50
15384;DHT22;7790;53.022;12.968;2023-08-06T09:58:56;20.70;61.20
15384;DHT22;7790;53.022;12.968;2023-08-06T10:03:00;20.70;61.30
15384;DHT22;7790;53.022;12.968;2023-08-06T10:07:01;20.70;61.10
15384;DHT22;7790;53.022;12.968;2023-08-06T10:11:03;20.70;61.10
15384;DHT22;7790;53.022;12.968;2023-08-06T10:15:08;20.70;61.10
15384;DHT22;7790;53.022;12.968;2023-08-06T10:19:12;20.70;61.00
15384;DHT22;7790;53.022;12.968;2023-08-06T10:23:13;20.70;60.90
15384;DHT22;7790;53.022;12.968;2023-08-06T10:27:20;20.70;60.90
15384;DHT22;7790;53.022;12.968;2023-08-06T10:31:59;20.70;61.20
15384;DHT22;7790;53.022;12.968;2023-08-06T10:36:03;20.70;60.90
15384;DHT22;7790;53.022;12.968;2023-08-06T10:40:09;20.70;60.80
15384;DHT22;7790;53.022;12.968;2023-08-06T10:44:12;20.70;60.70
15384;DHT22;7790;53.022;12.968;2023-08-06T10:48:28;20.80;60.70
15384;DHT22;7790;53.022;12.968;2023-08-06T10:52:30;20.70;60.80
15384;DHT22;7790;53.022;12.968;2023-08-06T10:56:31;20.70;60.60
15384;DHT22;7790;53.022;12.968;2023-08-06T11:00:32;20.80;60.60
15384;DHT22;7790;53.022;12.968;2023-08-06T11:04:33;20.80;60.80
15384;DHT22;7790;53.022;12.968;2023-08-06T11:08:36;20.70;60.50
15384;DHT22;7790;53.022;12.968;2023-08-06T11:12:37;20.80;60.60
15384;DHT22;7790;53.022;12.968;2023-08-06T11:16:38;20.80;60.60
15384;DHT22;7790;53.022;12.968;2023-08-06T11:20:39;20.80;60.70
15384;DHT22;7790;53.022;12.968;2023-08-06T11:24:40;20.70;60.40
15384;DHT22;7790;53.022;12.968;2023-08-06T11:28:41;20.80;60.40
15384;DHT22;7790;53.022;12.968;2023-08-06T11:32:46;20.80;60.40
15384;DHT22;7790;53.022;12.968;2023-08-06T11:36:47;20.80;60.40
15384;DHT22;7790;53.022;12.968;2023-08-06T11:40:50;20.80;60.40
15384;DHT22;7790;53.022;12.968;2023-08-06T11:44:51;20.80;60.60
15384;DHT22;7790;53.022;12.968;2023-08-06T11:48:58;20.80;60.30
15384;DHT22;7790;53.022;12.968;2023-08-06T11:53:00;20.80;60.30
15384;DHT22;7790;53.022;12.968;2023-08-06T11:57:01;20.80;60.40
15384;DHT22;7790;53.022;12.968;2023-08-06T12:01:03;20.80;60.40
15384;DHT22;7790;53.022;12.968;2023-08-06T12:05:10;20.80;60.40
15384;DHT22;7790;53.022;12.968;2023-08-06T12:09:11;20.80;60.40
15384;DHT22;7790;53.022;12.968;2023-08-06T12:13:12;20.80;60.30
15384;DHT22;7790;53.022;12.968;2023-08-06T12:17:13;20.80;60.30
15384;DHT22;7790;53.022;12.968;2023-08-06T12:21:14;20.80;60.30
15384;DHT22;7790;53.022;12.968;2023-08-06T12:25:15;20.80;60.20
15384;DHT22;7790;53.022;12.968;2023-08-06T12:29:16;20.80;60.30
15384;DHT22;7790;53.022;12.968;2023-08-06T12:33:17;20.80;60.60
15384;DHT22;7790;53.022;12.968;2023-08-06T12:37:17;20.70;60.20
15384;DHT22;7790;53.022;12.968;2023-08-06T12:41:18;20.80;60.40
15384;DHT22;7790;53.022;12.968;2023-08-06T12:45:19;20.80;60.90
15384;DHT22;7790;53.022;12.968;2023-08-06T12:49:22;20.80;60.70
15384;DHT22;7790;53.022;12.968;2023-08-06T12:53:22;20.80;60.40
15384;DHT22;7790;53.022;12.968;2023-08-06T12:57:24;20.80;60.80
15384;DHT22;7790;53.022;12.968;2023-08-06T13:01:24;20.80;60.80
15384;DHT22;7790;53.022;12.968;2023-08-06T13:05:25;20.80;60.80
15384;DHT22;7790;53.022;12.968;2023-08-06T13:09:26;20.80;60.40
15384;DHT22;7790;53.022;12.968;2023-08-06T13:13:28;20.80;60.50
15384;DHT22;7790;53.022;12.968;2023-08-06T13:17:29;20.80;60.30
15384;DHT22;7790;53.022;12.968;2023-08-06T13:25:35;20.80;60.60
15384;DHT22;7790;53.022;12.968;2023-08-06T13:29:37;20.70;60.70
15384;DHT22;7790;53.022;12.968;2023-08-06T13:33:38;20.70;60.50
15384;DHT22;7790;53.022;12.968;2023-08-06T13:37:39;20.70;60.40
15384;DHT22;7790;53.022;12.968;2023-08-06T13:41:40;20.70;60.60
15384;DHT22;7790;53.022;12.968;2023-08-06T13:45:41;20.70;60.90
15384;DHT22;7790;53.022;12.968;2023-08-06T13:49:42;20.70;60.90
15384;DHT22;7790;53.022;12.968;2023-08-06T13:53:43;20.70;61.20
15384;DHT22;7790;53.022;12.968;2023-08-06T13:57:43;20.60;61.50
15384;DHT22;7790;53.022;12.968;2023-08-06T14:01:44;20.60;61.70
15384;DHT22;7790;53.022;12.968;2023-08-06T14:05:45;20.70;61.90
15384;DHT22;7790;53.022;12.968;2023-08-06T14:09:46;20.60;62.20
15384;DHT22;7790;53.022;12.968;2023-08-06T14:13:48;20.60;61.90
15384;DHT22;7790;53.022;12.968;2023-08-06T14:17:49;20.60;62.10
15384;DHT22;7790;53.022;12.968;2023-08-06T14:21:50;20.70;63.50
15384;DHT22;7790;53.022;12.968;2023-08-06T14:25:51;20.70;61.70
15384;DHT22;7790;53.022;12.968;2023-08-06T14:29:52;20.70;62.40
15384;DHT22;7790;53.022;12.968;2023-08-06T14:33:53;20.70;62.60
15384;DHT22;7790;53.022;12.968;2023-08-06T14:37:54;20.70;63.20
15384;DHT22;7790;53.022;12.968;2023-08-06T14:41:54;20.70;63.00
15384;DHT22;7790;53.022;12.968;2023-08-06T14:45:55;20.70;62.80
15384;DHT22;7790;53.022;12.968;2023-08-06T14:49:56;20.70;63.10
15384;DHT22;7790;53.022;12.968;2023-08-06T14:53:57;20.70;62.80
15384;DHT22;7790;53.022;12.968;2023-08-06T14:57:58;20.70;63.00
15384;DHT22;7790;53.022;12.968;2023-08-06T15:01:58;20.70;62.80
15384;DHT22;7790;53.022;12.968;2023-08-06T15:05:59;20.70;62.60
15384;DHT22;7790;53.022;12.968;2023-08-06T15:10:01;20.70;62.50
15384;DHT22;7790;53.022;12.968;2023-08-06T15:14:02;20.70;62.30
15384;DHT22;7790;53.022;12.968;2023-08-06T15:18:05;20.80;62.30
15384;DHT22;7790;53.022;12.968;2023-08-06T15:22:06;20.80;61.90
15384;DHT22;7790;53.022;12.968;2023-08-06T15:26:07;20.80;62.10
15384;DHT22;7790;53.022;12.968;2023-08-06T15:30:08;20.70;62.00
15384;DHT22;7790;53.022;12.968;2023-08-06T15:34:09;20.70;62.20
15384;DHT22;7790;53.022;12.968;2023-08-06T15:38:10;20.70;62.00
15384;DHT22;7790;53.022;12.968;2023-08-06T15:42:11;20.70;62.20
15384;DHT22;7790;53.022;12.968;2023-08-06T15:46:12;20.70;61.90
15384;DHT22;7790;53.022;12.968;2023-08-06T15:50:13;20.70;62.30
15384;DHT22;7790;53.022;12.968;2023-08-06T15:54:13;20.70;62.30
15384;DHT22;7790;53.022;12.968;2023-08-06T15:58:14;20.70;62.50
15384;DHT22;7790;53.022;12.968;2023-08-06T16:02:16;20.70;62.40
15384;DHT22;7790;53.022;12.968;2023-08-06T16:06:16;20.70;62.60
15384;DHT22;7790;53.022;12.968;2023-08-06T16:10:17;20.70;62.80
15384;DHT22;7790;53.022;12.968;2023-08-06T16:14:19;20.70;62.80
15384;DHT22;7790;53.022;12.968;2023-08-06T16:18:20;20.70;62.60
15384;DHT22;7790;53.022;12.968;2023-08-06T16:22:21;20.70;62.70
15384;DHT22;7790;53.022;12.968;2023-08-06T16:26:22;20.70;62.80
15384;DHT22;7790;53.022;12.968;2023-08-06T16:30:23;20.70;62.60
15384;DHT22;7790;53.022;12.968;2023-08-06T16:34:24;20.70;62.70
15384;DHT22;7790;53.022;12.968;2023-08-06T16:38:25;20.70;62.60
15384;DHT22;7790;53.022;12.968;2023-08-06T16:42:25;20.70;62.90
15384;DHT22;7790;53.022;12.968;2023-08-06T16:46:27;20.70;63.10
15384;DHT22;7790;53.022;12.968;2023-08-06T16:50:28;20.60;63.90
15384;DHT22;7790;53.022;12.968;2023-08-06T16:54:29;20.60;63.30
15384;DHT22;7790;53.022;12.968;2023-08-06T16:58:30;20.60;63.30
15384;DHT22;7790;53.022;12.968;2023-08-06T17:02:31;20.60;63.30
15384;DHT22;7790;53.022;12.968;2023-08-06T17:06:31;20.60;63.40
15384;DHT22;7790;53.022;12.968;2023-08-06T17:10:33;20.60;63.30
15384;DHT22;7790;53.022;12.968;2023-08-06T17:14:34;20.60;63.10
15384;DHT22;7790;53.022;12.968;2023-08-06T17:18:35;20.60;63.30
15384;DHT22;7790;53.022;12.968;2023-08-06T17:22:36;20.70;63.20
15384;DHT22;7790;53.022;12.968;2023-08-06T17:26:37;20.70;63.30
15384;DHT22;7790;53.022;12.968;2023-08-06T17:30:42;20.60;63.20
15384;DHT22;7790;53.022;12.968;2023-08-06T17:34:43;20.60;63.40
15384;DHT22;7790;53.022;12.968;2023-08-06T17:38:44;20.60;63.40
15384;DHT22;7790;53.022;12.968;2023-08-06T17:42:45;20.60;63.20
15384;DHT22;7790;53.022;12.968;2023-08-06T17:46:45;20.60;63.30
15384;DHT22;7790;53.022;12.968;2023-08-06T17:50:46;20.50;63.30
15384;DHT22;7790;53.022;12.968;2023-08-06T17:54:47;20.60;63.10
15384;DHT22;7790;53.022;12.968;2023-08-06T17:58:48;20.50;62.80
15384;DHT22;7790;53.022;12.968;2023-08-06T18:02:49;20.50;62.70
15384;DHT22;7790;53.022;12.968;2023-08-06T18:06:50;20.60;62.90
15384;DHT22;7790;53.022;12.968;2023-08-06T18:10:53;20.70;62.00
15384;DHT22;7790;53.022;12.968;2023-08-06T18:14:55;20.90;62.10
15384;DHT22;7790;53.022;12.968;2023-08-06T18:18:56;21.00;61.30
15384;DHT22;7790;53.022;12.968;2023-08-06T18:22:58;20.90;61.30
15384;DHT22;7790;53.022;12.968;2023-08-06T18:26:59;20.90;61.00
15384;DHT22;7790;53.022;12.968;2023-08-06T18:31:00;21.00;60.90
15384;DHT22;7790;53.022;12.968;2023-08-06T18:35:01;21.00;60.80
15384;DHT22;7790;53.022;12.968;2023-08-06T18:39:02;20.90;60.60
15384;DHT22;7790;53.022;12.968;2023-08-06T18:43:03;20.90;60.50
15384;DHT22;7790;53.022;12.968;2023-08-06T18:47:04;21.00;60.40
15384;DHT22;7790;53.022;12.968;2023-08-06T18:51:05;20.90;60.10
15384;DHT22;7790;53.022;12.968;2023-08-06T18:55:06;20.90;59.80
15384;DHT22;7790;53.022;12.968;2023-08-06T18:59:07;20.90;60.00
15384;DHT22;7790;53.022;12.968;2023-08-06T19:03:08;20.90;59.70
15384;DHT22;7790;53.022;12.968;2023-08-06T19:07:09;21.00;59.50
15384;DHT22;7790;53.022;12.968;2023-08-06T19:11:10;21.00;59.50
15384;DHT22;7790;53.022;12.968;2023-08-06T19:15:11;21.00;59.80
15384;DHT22;7790;53.022;12.968;2023-08-06T19:19:12;20.90;60.00
15384;DHT22;7790;53.022;12.968;2023-08-06T19:23:14;21.00;60.00
15384;DHT22;7790;53.022;12.968;2023-08-06T19:27:19;20.90;59.70
15384;DHT22;7790;53.022;12.968;2023-08-06T19:31:20;21.00;59.80
15384;DHT22;7790;53.022;12.968;2023-08-06T19:35:21;20.90;59.70
15384;DHT22;7790;53.022;12.968;2023-08-06T19:39:22;20.90;60.10
15384;DHT22;7790;53.022;12.968;2023-08-06T19:43:22;20.80;60.40
15384;DHT22;7790;53.022;12.968;2023-08-06T19:47:23;20.80;60.60
15384;DHT22;7790;53.022;12.968;2023-08-06T19:51:24;20.80;60.60
15384;DHT22;7790;53.022;12.968;2023-08-06T19:55:26;20.80;60.70
15384;DHT22;7790;53.022;12.968;2023-08-06T19:59:26;20.80;60.60
15384;DHT22;7790;53.022;12.968;2023-08-06T20:03:27;20.80;60.80
15384;DHT22;7790;53.022;12.968;2023-08-06T20:07:32;20.80;60.80
15384;DHT22;7790;53.022;12.968;2023-08-06T20:11:33;20.80;60.80
15384;DHT22;7790;53.022;12.968;2023-08-06T20:15:37;20.70;60.80
15384;DHT22;7790;53.022;12.968;2023-08-06T20:19:38;20.70;60.60
15384;DHT22;7790;53.022;12.968;2023-08-06T20:23:41;20.70;60.70
15384;DHT22;7790;53.022;12.968;2023-08-06T20:27:42;20.70;60.50
15384;DHT22;7790;53.022;12.968;2023-08-06T20:31:43;20.70;60.50
15384;DHT22;7790;53.022;12.968;2023-08-06T20:35:44;20.70;60.60
15384;DHT22;7790;53.022;12.968;2023-08-06T20:39:45;20.70;60.50
15384;DHT22;7790;53.022;12.968;2023-08-06T20:43:46;20.70;60.40
15384;DHT22;7790;53.022;12.968;2023-08-06T20:47:47;20.60;60.10
15384;DHT22;7790;53.022;12.968;2023-08-06T20:51:47;20.70;60.30
15384;DHT22;7790;53.022;12.968;2023-08-06T20:56:04;20.70;60.30
15384;DHT22;7790;53.022;12.968;2023-08-06T21:00:06;20.60;60.10
15384;DHT22;7790;53.022;12.968;2023-08-06T21:04:08;20.60;60.40
15384;DHT22;7790;53.022;12.968;2023-08-06T21:08:11;20.60;60.20
15384;DHT22;7790;53.022;12.968;2023-08-06T21:12:12;20.60;60.10
15384;DHT22;7790;53.022;12.968;2023-08-06T21:16:13;20.60;60.00
15384;DHT22;7790;53.022;12.968;2023-08-06T21:20:14;20.60;60.00
15384;DHT22;7790;53.022;12.968;2023-08-06T21:24:15;20.60;59.90
15384;DHT22;7790;53.022;12.968;2023-08-06T21:28:16;20.60;59.90
15384;DHT22;7790;53.022;12.968;2023-08-06T21:32:17;20.60;59.90
15384;DHT22;7790;53.022;12.968;2023-08-06T21:36:18;20.50;59.70
15384;DHT22;7790;53.022;12.968;2023-08-06T21:40:19;20.60;59.80
15384;DHT22;7790;53.022;12.968;2023-08-06T21:44:20;20.60;59.60
15384;DHT22;7790;53.022;12.968;2023-08-06T21:48:21;20.60;59.70
15384;DHT22;7790;53.022;12.968;2023-08-06T21:52:24;20.50;59.60
15384;DHT22;7790;53.022;12.968;2023-08-06T21:56:25;20.50;59.70
15384;DHT22;7790;53.022;12.968;2023-08-06T22:00:26;20.50;59.60
15384;DHT22;7790;53.022;12.968;2023-08-06T22:04:27;20.50;60.00
15384;DHT22;7790;53.022;12.968;2023-08-06T22:08:28;20.50;59.50
15384;DHT22;7790;53.022;12.968;2023-08-06T22:12:29;20.50;59.50
15384;DHT22;7790;53.022;12.968;2023-08-06T22:16:30;20.50;59.40
15384;DHT22;7790;53.022;12.968;2023-08-06T22:20:31;20.50;59.40
15384;DHT22;7790;53.022;12.968;2023-08-06T22:24:32;20.50;59.40
15384;DHT22;7790;53.022;12.968;2023-08-06T22:28:32;20.50;59.30
15384;DHT22;7790;53.022;12.968;2023-08-06T22:32:33;20.50;59.20
15384;DHT22;7790;53.022;12.968;2023-08-06T22:36:34;20.50;59.30
15384;DHT22;7790;53.022;12.968;2023-08-06T22:40:35;20.50;59.20
15384;DHT22;7790;53.022;12.968;2023-08-06T22:44:36;20.50;59.20
15384;DHT22;7790;53.022;12.968;2023-08-06T22:48:37;20.50;59.20
15384;DHT22;7790;53.022;12.968;2023-08-06T22:52:38;20.50;59.20
15384;DHT22;7790;53.022;12.968;2023-08-06T22:56:39;20.50;59.20
15384;DHT22;7790;53.022;12.968;2023-08-06T23:00:40;20.50;59.10
15384;DHT22;7790;53.022;12.968;2023-08-06T23:04:41;20.50;59.10
15384;DHT22;7790;53.022;12.968;2023-08-06T23:08:42;20.50;59.10
15384;DHT22;7790;53.022;12.968;2023-08-06T23:12:43;20.50;59.20
15384;DHT22;7790;53.022;12.968;2023-08-06T23:16:44;20.50;59.20
15384;DHT22;7790;53.022;12.968;2023-08-06T23:20:45;20.50;59.10
15384;DHT22;7790;53.022;12.968;2023-08-06T23:24:46;20.40;59.00
15384;DHT22;7790;53.022;12.968;2023-08-06T23:28:47;20.40;59.00
15384;DHT22;7790;53.022;12.968;2023-08-06T23:32:49;20.50;59.00
15384;DHT22;7790;53.022;12.968;2023-08-06T23:36:50;20.40;58.90
15384;DHT22;7790;53.022;12.968;2023-08-06T23:40:51;20.50;59.00
15384;DHT22;7790;53.022;12.968;2023-08-06T23:44:52;20.40;58.90
15384;DHT22;7790;53.022;12.968;2023-08-06T23:48:53;20.40;58.90
15384;DHT22;7790;53.022;12.968;2023-08-06T23:52:54;20.40;58.90
15384;DHT22;7790;53.022;12.968;2023-08-06T23:56:55;20.40;58.90
